Aérodrome :
LOGIN :

S'inscrire | Disclaimer

   EN    FR    IT 

 










Légende :    VFR   VFR Marginal   IFR   IFR Intensif   IFR Très Intensif
Visi : 
Plafond : 
>= 8 km
>= 3000ft
5 à 8 km
1000 à 3000 ft
1500m à 5 km
500 à 1000 ft
800 à 1500m
200 à 500 ft
< 800m
< 200 ft
Symboles :   Orages  Brouillard  Fortes neiges  Fortes précipitations  Vent > 20 kt
SIGMETs :   Divers  Orages  Givrage  Turbulence  Onde Orograph.  Cendres Volcan.






- Altitude de l'aérodrome : 1906 ft
- Code IATA : INN


LOWI - Innsbruck

DERNIER METAR :
  • 291150Z VRB01KT 8000 -SHRA FEW005 SCT009 BKN030 02/01 Q1012 R08/29//95 NOSIG

METARs EXPIRÉS :
  • 291120Z 06003KT 040V100 9999 FEW005 BKN015 BKN045 02/00 Q1012 R08/29//95 NOSIG
  • 291050Z 06004KT 9999 FEW005 SCT012 BKN020 02/01 Q1012 R08/29//95 NOSIG
  • 291020Z VRB02KT 8000 -RASN FEW005 SCT012 BKN020 01/00 Q1012 R08/29//95 TEMPO 3000 BKN010
  • 290950Z VRB02KT 6000 -SN FEW005 SCT008 BKN016 01/00 Q1012 R08/29//95 TEMPO 3000 BKN010
  • 290920Z VRB01KT 5000 -SNRA BR FEW004 SCT006 BKN010 01/00 Q1011 R08/29//95 TEMPO 3000 BKN007

TAF TAF LOWI
Valide du 29 à 12h jusqu'au 30 à 12h UTC


291115Z 2912/3012 09005KT 8000 -SN SCT005 SCT020 BKN060 TX05/3012Z TN00/3007Z
TEMPO 2912/2915 27010KT 2500 SHSN BKN009
PROB40
TEMPO 2912/2920 34020G35KT
TEMPO 2915/3002 27010KT 1200 SHSN VV006
PROB40 3003/3009 1000 BCFG BKN004
BECMG 3007/3009 27006KT NSW SCT010



MET'MAP, la Météo Aéronautique d'un coup d'oeil ! - Copyright ORBIFLY Décembre 2007 - Disclaimer

ORBIFLY MET'MAP TEAM :

Programmation & Développement : Alexandra Zaïnal
Sur une idée originale de : Baudouin d'Aumeries
Assistance à la programmation : Marc-Olivier Méhu
Soutien technique & logistique : Manuel Goepfert

Contact : metmap@orbifly.com




SOURCES & CREDITS :

   NOAA